Time;durP1;ratioP1;P1;durP2;ratioP2;P2;SDS_P1;SDS_P2;PMS_P1;PMS_P2;Temp;Humidity;BMP_temperature;BMP_pressure;BME280_temperature;BME280_humidity;BME280_pressure;Samples;Min_cycle;Max_cycle;Signal;HPM_P1;HPM_P2
2023/06/30 00:01:28;;;;;;;6.45;3.85;;;;;;;;;;5044621;28;20037;-68
2023/06/30 00:03:54;;;;;;;6.15;3.50;;;;;;;;;;5043593;28;20426;-68
2023/06/30 00:06:19;;;;;;;8.27;3.55;;;;;;;;;;5045386;28;20056;-68
2023/06/30 00:08:45;;;;;;;4.95;3.55;;;;;;;;;;5045043;28;20037;-68
2023/06/30 00:11:10;;;;;;;3.83;3.50;;;;;;;;;;5043309;28;20032;-68
2023/06/30 00:13:36;;;;;;;7.18;3.50;;;;;;;;;;5043639;28;20498;-68
2023/06/30 00:16:02;;;;;;;3.70;3.40;;;;;;;;;;5045505;28;20072;-68
2023/06/30 00:18:29;;;;;;;4.40;3.63;;;;;;;;;;5043604;28;20029;-68
2023/06/30 00:20:54;;;;;;;3.67;3.30;;;;;;;;;;5043726;28;20104;-68
2023/06/30 00:23:20;;;;;;;3.67;3.20;;;;;;;;;;5045039;28;20112;-68
2023/06/30 00:25:46;;;;;;;4.28;3.38;;;;;;;;;;5043891;28;20064;-66
2023/06/30 00:28:12;;;;;;;4.22;3.83;;;;;;;;;;5043986;28;20070;-67
2023/06/30 00:30:38;;;;;;;6.72;3.83;;;;;;;;;;5045058;28;20033;-66
2023/06/30 00:33:04;;;;;;;4.07;3.60;;;;;;;;;;5060554;28;20044;-67
2023/06/30 00:35:30;;;;;;;4.28;3.72;;;;;;;;;;5043621;28;20041;-66
2023/06/30 00:37:55;;;;;;;4.18;3.78;;;;;;;;;;5043320;28;20678;-68
2023/06/30 00:40:21;;;;;;;5.32;4.10;;;;;;;;;;5076485;28;20108;-67
2023/06/30 00:42:47;;;;;;;5.07;3.75;;;;;;;;;;5044723;28;20416;-66
2023/06/30 00:45:13;;;;;;;5.90;4.07;;;;;;;;;;5057457;28;20032;-66
2023/06/30 00:47:39;;;;;;;4.68;3.65;;;;;;;;;;5060031;28;20050;-66
2023/06/30 00:50:05;;;;;;;9.23;3.80;;;;;;;;;;5043193;28;20032;-66
2023/06/30 00:52:31;;;;;;;5.00;3.78;;;;;;;;;;5042094;28;20068;-66
2023/06/30 00:54:56;;;;;;;4.05;3.58;;;;;;;;;;5044486;28;20044;-66
2023/06/30 00:57:22;;;;;;;4.30;3.90;;;;;;;;;;5059950;28;20037;-66
2023/06/30 00:59:48;;;;;;;6.43;3.92;;;;;;;;;;5043945;28;20073;-66
2023/06/30 01:02:28;;;;;;;8.23;4.43;;;;;;;;;;5043525;28;20037;-66
2023/06/30 01:05:25;;;;;;;5.20;3.90;;;;;;;;;;5044274;28;20028;-66
2023/06/30 01:08:01;;;;;;;4.47;3.72;;;;;;;;;;4962397;28;20051;-66
2023/06/30 01:10:30;;;;;;;4.13;3.70;;;;;;;;;;4961727;28;20039;-66
2023/06/30 01:12:57;;;;;;;5.45;3.70;;;;;;;;;;4961199;28;20606;-66
2023/06/30 01:15:24;;;;;;;4.63;3.90;;;;;;;;;;4962775;28;20046;-66
2023/06/30 01:17:56;;;;;;;5.28;4.20;;;;;;;;;;4960191;28;20049;-66
2023/06/30 01:20:23;;;;;;;5.25;4.18;;;;;;;;;;4946290;28;20047;-66
2023/06/30 01:22:54;;;;;;;5.45;4.15;;;;;;;;;;4965513;28;20142;-66
2023/06/30 01:25:25;;;;;;;4.22;3.83;;;;;;;;;;4965244;28;20066;-66
2023/06/30 01:27:51;;;;;;;4.55;3.72;;;;;;;;;;4950486;28;20118;-66
2023/06/30 01:30:17;;;;;;;4.05;3.67;;;;;;;;;;4949727;28;20031;-66
2023/06/30 01:32:45;;;;;;;4.20;3.80;;;;;;;;;;4950444;28;20636;-66
2023/06/30 01:35:11;;;;;;;6.00;4.30;;;;;;;;;;4963775;28;20856;-67
2023/06/30 01:37:37;;;;;;;4.80;4.00;;;;;;;;;;4966690;28;20149;-66
2023/06/30 01:40:04;;;;;;;4.35;3.65;;;;;;;;;;4965195;28;20579;-66
2023/06/30 01:42:30;;;;;;;6.25;4.00;;;;;;;;;;4964209;28;20047;-66
2023/06/30 01:44:57;;;;;;;6.68;3.88;;;;;;;;;;5018091;28;20091;-66
2023/06/30 01:47:24;;;;;;;4.70;3.88;;;;;;;;;;5046539;28;20047;-66
2023/06/30 01:49:49;;;;;;;4.30;3.90;;;;;;;;;;5062851;28;20168;-66
2023/06/30 01:52:15;;;;;;;4.30;3.78;;;;;;;;;;5047120;28;20121;-66
2023/06/30 01:54:40;;;;;;;4.63;4.10;;;;;;;;;;5063002;28;20037;-66
2023/06/30 01:57:06;;;;;;;5.53;4.10;;;;;;;;;;5063034;28;20025;-66
2023/06/30 01:59:32;;;;;;;5.00;3.95;;;;;;;;;;5045731;28;20118;-66
2023/06/30 02:01:57;;;;;;;6.47;4.20;;;;;;;;;;5045501;28;20044;-66
2023/06/30 02:04:23;;;;;;;4.95;3.97;;;;;;;;;;5046185;28;20033;-66
2023/06/30 02:06:49;;;;;;;4.47;4.07;;;;;;;;;;5043399;28;20040;-66
2023/06/30 02:09:14;;;;;;;4.88;4.38;;;;;;;;;;5044956;28;20037;-66
2023/06/30 02:11:40;;;;;;;7.90;4.72;;;;;;;;;;5046262;28;20044;-66
2023/06/30 02:14:06;;;;;;;4.72;4.15;;;;;;;;;;5046015;28;20040;-66
2023/06/30 02:16:32;;;;;;;5.75;3.80;;;;;;;;;;5050373;28;20634;-66
2023/06/30 02:18:57;;;;;;;5.13;4.53;;;;;;;;;;5055089;28;21596;-66
2023/06/30 02:21:25;;;;;;;4.63;3.88;;;;;;;;;;5046822;28;20087;-66
2023/06/30 02:23:50;;;;;;;4.88;4.25;;;;;;;;;;5047016;28;20670;-66
2023/06/30 02:26:16;;;;;;;4.20;3.80;;;;;;;;;;5047330;28;20037;-66
2023/06/30 02:28:41;;;;;;;5.50;4.18;;;;;;;;;;5043572;28;20040;-66
2023/06/30 02:31:07;;;;;;;5.43;4.15;;;;;;;;;;5046976;28;20033;-66
2023/06/30 02:33:34;;;;;;;4.45;4.05;;;;;;;;;;5046481;28;20041;-66
2023/06/30 02:36:03;;;;;;;4.80;4.30;;;;;;;;;;5047273;28;20052;-66
2023/06/30 02:38:29;;;;;;;4.55;4.15;;;;;;;;;;5042587;28;20041;-67
2023/06/30 02:40:55;;;;;;;5.53;4.57;;;;;;;;;;5045469;28;20110;-67
2023/06/30 02:43:20;;;;;;;7.65;4.55;;;;;;;;;;5061538;28;20826;-67
2023/06/30 02:45:46;;;;;;;4.60;4.10;;;;;;;;;;5045009;28;20025;-67
2023/06/30 02:48:12;;;;;;;9.43;4.60;;;;;;;;;;5060248;28;20044;-67
2023/06/30 02:50:38;;;;;;;6.70;4.60;;;;;;;;;;5045457;28;20097;-67
2023/06/30 02:53:03;;;;;;;5.45;4.72;;;;;;;;;;5062033;28;20045;-67
2023/06/30 02:55:29;;;;;;;5.38;4.85;;;;;;;;;;5044108;28;20040;-67
2023/06/30 02:57:56;;;;;;;6.38;4.65;;;;;;;;;;5045712;28;20044;-67
2023/06/30 03:00:23;;;;;;;4.90;4.38;;;;;;;;;;5043170;28;20040;-66
2023/06/30 03:02:48;;;;;;;6.95;4.63;;;;;;;;;;5044836;28;20427;-67
2023/06/30 03:05:15;;;;;;;4.90;4.47;;;;;;;;;;5045425;28;20657;-66
2023/06/30 03:07:42;;;;;;;5.07;4.30;;;;;;;;;;5074059;28;20042;-65
2023/06/30 03:10:09;;;;;;;7.97;4.85;;;;;;;;;;5042719;28;20071;-66
2023/06/30 03:12:35;;;;;;;5.38;4.28;;;;;;;;;;5044852;28;20074;-66
2023/06/30 03:15:00;;;;;;;6.18;4.60;;;;;;;;;;5045402;28;20496;-65
2023/06/30 03:17:26;;;;;;;6.85;4.40;;;;;;;;;;5027177;28;20050;-66
2023/06/30 03:19:52;;;;;;;5.68;4.35;;;;;;;;;;5044573;28;20028;-65
2023/06/30 03:22:18;;;;;;;5.90;5.07;;;;;;;;;;5061410;28;20040;-67
2023/06/30 03:24:44;;;;;;;5.85;4.53;;;;;;;;;;5044100;28;20786;-65
2023/06/30 03:27:09;;;;;;;6.32;4.60;;;;;;;;;;5061189;28;20500;-65
2023/06/30 03:29:35;;;;;;;5.30;4.25;;;;;;;;;;5060666;28;20489;-67
2023/06/30 03:32:01;;;;;;;5.95;4.35;;;;;;;;;;5044232;28;20028;-67
2023/06/30 03:34:26;;;;;;;6.72;5.00;;;;;;;;;;5060195;28;20099;-67
2023/06/30 03:36:52;;;;;;;6.18;4.78;;;;;;;;;;5045447;28;20506;-67
2023/06/30 03:39:19;;;;;;;4.72;4.25;;;;;;;;;;5061131;28;20507;-69
2023/06/30 03:41:46;;;;;;;6.70;4.72;;;;;;;;;;5043841;28;20037;-67
2023/06/30 03:44:13;;;;;;;5.07;4.57;;;;;;;;;;5044448;28;20035;-65
2023/06/30 03:46:40;;;;;;;6.30;4.97;;;;;;;;;;5041506;28;20554;-65
2023/06/30 03:49:05;;;;;;;5.65;4.97;;;;;;;;;;5060476;28;20124;-66
2023/06/30 03:51:31;;;;;;;8.50;4.70;;;;;;;;;;5042034;28;20104;-66
2023/06/30 03:53:57;;;;;;;6.78;4.93;;;;;;;;;;5044376;28;20119;-66
2023/06/30 03:56:22;;;;;;;7.32;5.20;;;;;;;;;;5044266;28;20025;-65
2023/06/30 03:58:48;;;;;;;6.00;5.40;;;;;;;;;;5043888;28;20520;-65
2023/06/30 04:01:14;;;;;;;6.00;5.07;;;;;;;;;;5043176;28;20036;-65
2023/06/30 04:03:40;;;;;;;8.98;4.82;;;;;;;;;;5045409;28;20041;-66
2023/06/30 04:06:06;;;;;;;7.35;5.57;;;;;;;;;;5045451;28;20074;-66
2023/06/30 04:08:31;;;;;;;6.28;5.05;;;;;;;;;;5044546;28;20056;-66
2023/06/30 04:10:57;;;;;;;6.13;4.97;;;;;;;;;;5045208;28;20029;-66
2023/06/30 04:13:22;;;;;;;9.27;5.50;;;;;;;;;;5045354;28;20032;-66
2023/06/30 04:15:48;;;;;;;5.40;4.90;;;;;;;;;;5040062;28;20555;-66
2023/06/30 04:18:13;;;;;;;6.95;5.05;;;;;;;;;;5042195;28;20037;-66
2023/06/30 04:20:39;;;;;;;7.90;4.90;;;;;;;;;;5043199;28;20036;-66
2023/06/30 04:23:05;;;;;;;5.60;4.93;;;;;;;;;;5045381;28;20043;-66
2023/06/30 04:25:30;;;;;;;8.05;5.47;;;;;;;;;;5044317;28;20047;-66
2023/06/30 04:27:56;;;;;;;5.80;5.20;;;;;;;;;;5042825;28;20033;-66
2023/06/30 04:30:21;;;;;;;5.60;4.90;;;;;;;;;;5043975;28;20043;-66
2023/06/30 04:32:47;;;;;;;8.07;5.18;;;;;;;;;;5045056;28;20041;-66
2023/06/30 04:35:14;;;;;;;5.78;4.97;;;;;;;;;;5045664;28;20029;-66
2023/06/30 04:37:40;;;;;;;7.07;4.93;;;;;;;;;;5044716;28;20039;-66
2023/06/30 04:40:10;;;;;;;9.25;5.57;;;;;;;;;;5044240;28;20033;-66
2023/06/30 04:42:36;;;;;;;6.20;4.90;;;;;;;;;;5043578;28;20577;-66
2023/06/30 04:45:03;;;;;;;6.45;5.05;;;;;;;;;;5044181;28;20033;-66
2023/06/30 04:47:30;;;;;;;4.63;4.13;;;;;;;;;;5044448;28;20458;-66
2023/06/30 04:49:56;;;;;;;5.20;4.70;;;;;;;;;;5043606;28;20037;-66
2023/06/30 04:52:21;;;;;;;6.47;4.90;;;;;;;;;;5043750;28;20444;-66
2023/06/30 04:54:47;;;;;;;5.03;4.47;;;;;;;;;;5044733;28;20045;-66
2023/06/30 04:57:12;;;;;;;5.88;4.45;;;;;;;;;;5044227;28;20082;-66
2023/06/30 04:59:38;;;;;;;6.38;4.47;;;;;;;;;;5043168;28;20098;-66
2023/06/30 05:02:04;;;;;;;6.80;4.60;;;;;;;;;;5044124;28;20052;-66
2023/06/30 05:04:30;;;;;;;6.55;4.95;;;;;;;;;;5044462;28;20044;-66
2023/06/30 05:06:55;;;;;;;5.13;4.45;;;;;;;;;;5044532;28;20114;-66
2023/06/30 05:09:22;;;;;;;6.13;5.00;;;;;;;;;;5042278;28;20040;-66
2023/06/30 05:11:47;;;;;;;6.45;5.10;;;;;;;;;;5042236;28;20031;-66
2023/06/30 05:14:13;;;;;;;5.88;4.38;;;;;;;;;;5044150;28;20037;-66
2023/06/30 05:16:38;;;;;;;6.80;4.50;;;;;;;;;;5044397;28;20048;-66
2023/06/30 05:19:04;;;;;;;5.50;5.00;;;;;;;;;;5044313;28;20056;-66
2023/06/30 05:21:30;;;;;;;5.60;4.57;;;;;;;;;;5042367;28;20037;-66
2023/06/30 05:23:55;;;;;;;6.82;4.95;;;;;;;;;;5044244;28;20082;-66
2023/06/30 05:26:21;;;;;;;10.20;5.63;;;;;;;;;;5044795;28;20040;-66
2023/06/30 05:28:46;;;;;;;7.28;5.50;;;;;;;;;;5041476;28;20497;-66
2023/06/30 05:31:12;;;;;;;10.90;5.30;;;;;;;;;;5044653;28;20035;-66
2023/06/30 05:33:37;;;;;;;5.65;4.97;;;;;;;;;;5044364;28;20045;-65
2023/06/30 05:36:03;;;;;;;9.68;5.05;;;;;;;;;;5044389;28;20239;-66
2023/06/30 05:38:29;;;;;;;7.80;5.32;;;;;;;;;;5041712;28;20032;-66
2023/06/30 05:40:55;;;;;;;5.55;5.00;;;;;;;;;;5044253;28;20052;-66
2023/06/30 05:43:20;;;;;;;8.00;5.30;;;;;;;;;;5043797;28;20136;-66
2023/06/30 05:45:46;;;;;;;6.80;6.10;;;;;;;;;;5044294;28;20187;-66
2023/06/30 05:48:12;;;;;;;6.88;6.03;;;;;;;;;;5042729;28;20071;-66
2023/06/30 05:50:37;;;;;;;10.25;5.63;;;;;;;;;;5044364;28;20040;-65
2023/06/30 05:53:03;;;;;;;12.45;7.63;;;;;;;;;;5044909;28;20102;-65
2023/06/30 05:55:28;;;;;;;11.02;8.70;;;;;;;;;;5043542;28;20041;-64
2023/06/30 05:57:54;;;;;;;9.07;8.18;;;;;;;;;;5044243;28;20480;-64
2023/06/30 06:00:20;;;;;;;11.50;7.97;;;;;;;;;;5043593;28;20159;-65
2023/06/30 06:02:46;;;;;;;10.77;9.00;;;;;;;;;;5037283;28;20041;-66
2023/06/30 06:05:11;;;;;;;11.95;10.25;;;;;;;;;;5040440;28;20036;-66
2023/06/30 06:07:37;;;;;;;11.77;9.70;;;;;;;;;;5044719;28;20073;-66
2023/06/30 06:10:03;;;;;;;13.30;10.32;;;;;;;;;;5045532;28;20487;-66
2023/06/30 06:12:29;;;;;;;11.98;10.20;;;;;;;;;;5047772;28;20136;-66
2023/06/30 06:14:55;;;;;;;13.48;10.65;;;;;;;;;;5042427;28;20231;-66
2023/06/30 06:17:20;;;;;;;13.38;11.15;;;;;;;;;;5045687;28;20032;-67
2023/06/30 06:19:46;;;;;;;12.40;10.98;;;;;;;;;;5044429;28;20025;-67
2023/06/30 06:22:11;;;;;;;15.43;10.88;;;;;;;;;;5046992;28;20024;-67
2023/06/30 06:24:37;;;;;;;12.60;10.98;;;;;;;;;;5043680;28;20037;-66
2023/06/30 06:27:03;;;;;;;12.68;10.48;;;;;;;;;;5047365;28;20427;-66
2023/06/30 06:29:28;;;;;;;13.57;10.73;;;;;;;;;;5046753;28;20094;-67
2023/06/30 06:31:54;;;;;;;11.75;10.30;;;;;;;;;;5047667;28;20079;-67
2023/06/30 06:34:20;;;;;;;13.45;10.52;;;;;;;;;;5045481;28;20048;-66
2023/06/30 06:36:46;;;;;;;18.17;16.40;;;;;;;;;;5047180;28;20041;-66
2023/06/30 06:39:12;;;;;;;17.30;15.85;;;;;;;;;;5062348;28;20025;-66
2023/06/30 06:41:38;;;;;;;17.40;15.75;;;;;;;;;;5046738;28;20056;-67
2023/06/30 06:44:06;;;;;;;16.73;15.32;;;;;;;;;;5044985;28;20047;-66
2023/06/30 06:46:31;;;;;;;16.95;15.07;;;;;;;;;;5047162;28;20037;-66
2023/06/30 06:48:57;;;;;;;14.43;13.13;;;;;;;;;;5046888;28;20465;-66
2023/06/30 06:51:23;;;;;;;15.50;14.00;;;;;;;;;;5045811;28;20067;-66
2023/06/30 06:53:51;;;;;;;23.27;13.98;;;;;;;;;;5045634;28;20443;-65
2023/06/30 06:56:17;;;;;;;20.37;14.87;;;;;;;;;;5044384;28;20090;-65
2023/06/30 06:58:42;;;;;;;16.08;14.15;;;;;;;;;;5046938;28;20459;-65
2023/06/30 07:01:09;;;;;;;14.43;12.98;;;;;;;;;;5046510;28;20610;-65
2023/06/30 07:03:35;;;;;;;14.65;13.15;;;;;;;;;;5045046;28;20082;-66
2023/06/30 07:06:01;;;;;;;15.93;13.80;;;;;;;;;;5047650;28;20037;-66
2023/06/30 07:08:28;;;;;;;16.23;14.27;;;;;;;;;;5046356;28;20051;-66
2023/06/30 07:10:53;;;;;;;15.38;12.93;;;;;;;;;;5047015;28;20029;-66
2023/06/30 07:13:21;;;;;;;16.13;13.63;;;;;;;;;;5044260;28;20402;-65
2023/06/30 07:15:50;;;;;;;16.65;13.13;;;;;;;;;;5043702;28;20043;-66
2023/06/30 07:18:17;;;;;;;;;;;;;;;;;;5046607;28;20082;-65
2023/06/30 07:20:47;;;;;;;14.43;12.93;;;;;;;;;;5039264;28;20392;-66
2023/06/30 07:23:13;;;;;;;14.70;13.25;;;;;;;;;;5041444;28;20039;-66
2023/06/30 07:25:39;;;;;;;15.32;13.93;;;;;;;;;;5044608;28;20126;-66
2023/06/30 07:28:05;;;;;;;15.23;13.63;;;;;;;;;;5042573;28;20033;-66
2023/06/30 07:30:30;;;;;;;14.65;13.15;;;;;;;;;;5044654;28;20408;-66
2023/06/30 07:32:56;;;;;;;14.82;13.15;;;;;;;;;;5044958;28;20037;-66
2023/06/30 07:35:22;;;;;;;15.52;13.20;;;;;;;;;;5044551;28;20072;-66
2023/06/30 07:37:49;;;;;;;14.10;12.95;;;;;;;;;;5043445;28;20037;-66
2023/06/30 07:40:16;;;;;;;15.27;13.88;;;;;;;;;;5043928;28;20044;-66
2023/06/30 07:42:45;;;;;;;15.60;13.82;;;;;;;;;;5044797;28;20044;-66
2023/06/30 07:45:13;;;;;;;13.85;12.52;;;;;;;;;;5044828;28;20031;-66
2023/06/30 07:47:42;;;;;;;14.55;12.93;;;;;;;;;;5042782;28;20032;-65
2023/06/30 07:50:11;;;;;;;14.90;13.50;;;;;;;;;;5044333;28;20539;-66
2023/06/30 07:52:42;;;;;;;15.05;13.15;;;;;;;;;;5044148;28;20025;-66
2023/06/30 07:55:08;;;;;;;13.98;12.20;;;;;;;;;;5044328;28;20560;-66
2023/06/30 07:57:34;;;;;;;14.25;12.68;;;;;;;;;;5042710;28;20047;-66
2023/06/30 07:59:59;;;;;;;14.10;12.57;;;;;;;;;;5043781;28;20500;-65
2023/06/30 08:02:25;;;;;;;14.93;12.57;;;;;;;;;;5044736;28;20033;-66
2023/06/30 08:04:50;;;;;;;13.07;11.77;;;;;;;;;;5044372;28;20395;-65
2023/06/30 08:07:16;;;;;;;13.35;12.02;;;;;;;;;;5041726;28;20702;-66
2023/06/30 08:09:41;;;;;;;14.00;12.60;;;;;;;;;;5044148;28;20032;-66
2023/06/30 08:12:08;;;;;;;14.40;12.48;;;;;;;;;;5044017;28;20029;-66
2023/06/30 08:14:35;;;;;;;14.07;12.60;;;;;;;;;;5043098;28;20087;-66
2023/06/30 08:17:00;;;;;;;15.50;13.27;;;;;;;;;;5043914;28;20043;-66
2023/06/30 08:19:26;;;;;;;18.77;13.50;;;;;;;;;;5043413;28;20037;-66
2023/06/30 08:21:51;;;;;;;14.63;13.13;;;;;;;;;;5042860;28;20029;-66
2023/06/30 08:24:17;;;;;;;19.25;14.13;;;;;;;;;;5042879;28;20037;-65
2023/06/30 08:26:42;;;;;;;16.17;14.00;;;;;;;;;;5045988;28;20549;-66
2023/06/30 08:29:08;;;;;;;15.40;13.63;;;;;;;;;;5044914;28;20029;-65
2023/06/30 08:31:33;;;;;;;15.27;13.70;;;;;;;;;;5044183;28;20124;-65
2023/06/30 08:33:59;;;;;;;15.00;13.40;;;;;;;;;;5046141;28;20139;-66
2023/06/30 08:36:24;;;;;;;18.00;13.82;;;;;;;;;;5045590;28;20470;-65
2023/06/30 08:38:50;;;;;;;17.13;13.65;;;;;;;;;;5045119;28;20500;-66
2023/06/30 08:41:15;;;;;;;17.33;13.10;;;;;;;;;;5042429;28;20040;-66
2023/06/30 08:43:41;;;;;;;17.35;14.27;;;;;;;;;;5045095;28;20037;-66
2023/06/30 08:46:09;;;;;;;16.45;12.82;;;;;;;;;;5045178;28;20037;-66
2023/06/30 08:48:36;;;;;;;16.95;14.38;;;;;;;;;;5042509;28;20028;-66
2023/06/30 08:51:02;;;;;;;13.95;12.43;;;;;;;;;;5044770;28;20037;-66
2023/06/30 08:53:30;;;;;;;17.52;13.90;;;;;;;;;;5044843;28;20492;-66
2023/06/30 08:55:57;;;;;;;16.85;13.18;;;;;;;;;;5045146;28;20041;-66
2023/06/30 08:58:24;;;;;;;18.30;13.93;;;;;;;;;;5043171;28;20033;-65
2023/06/30 09:00:50;;;;;;;21.45;14.95;;;;;;;;;;5044856;28;20068;-66
2023/06/30 09:03:16;;;;;;;17.10;14.20;;;;;;;;;;5045086;28;20441;-66
2023/06/30 09:05:42;;;;;;;17.30;13.35;;;;;;;;;;5042813;28;20519;-66
2023/06/30 09:08:19;;;;;;;16.35;13.57;;;;;;;;;;5043562;28;20043;-65
2023/06/30 09:10:46;;;;;;;15.43;12.95;;;;;;;;;;5044966;28;20033;-66
2023/06/30 09:13:13;;;;;;;19.27;12.73;;;;;;;;;;5041933;28;20033;-65
2023/06/30 09:15:40;;;;;;;19.92;13.63;;;;;;;;;;5044696;28;20083;-65
2023/06/30 09:18:06;;;;;;;16.88;12.50;;;;;;;;;;5043025;28;20033;-65
2023/06/30 09:20:31;;;;;;;18.42;13.02;;;;;;;;;;5044865;28;20033;-65
2023/06/30 09:22:57;;;;;;;18.25;13.00;;;;;;;;;;5044389;28;20493;-65
2023/06/30 09:25:25;;;;;;;17.23;13.18;;;;;;;;;;5044611;28;20041;-65
2023/06/30 09:27:52;;;;;;;18.63;13.27;;;;;;;;;;5044523;28;20577;-66
2023/06/30 09:30:17;;;;;;;17.58;12.80;;;;;;;;;;5039978;28;20730;-66
2023/06/30 09:32:43;;;;;;;16.70;12.80;;;;;;;;;;5045632;28;20115;-65
2023/06/30 09:35:14;;;;;;;15.38;12.65;;;;;;;;;;5044443;28;20489;-65
2023/06/30 09:37:43;;;;;;;16.60;12.68;;;;;;;;;;5043411;28;20048;-65
2023/06/30 09:40:14;;;;;;;17.00;13.30;;;;;;;;;;5044321;28;20094;-66
2023/06/30 09:42:44;;;;;;;15.43;12.57;;;;;;;;;;5041091;28;20069;-65
2023/06/30 09:45:12;;;;;;;17.58;13.00;;;;;;;;;;5044607;28;20049;-66
2023/06/30 09:47:38;;;;;;;17.83;13.32;;;;;;;;;;5047716;28;20041;-66
2023/06/30 09:50:08;;;;;;;20.17;13.40;;;;;;;;;;5046486;28;20480;-66
2023/06/30 09:52:34;;;;;;;20.60;12.98;;;;;;;;;;5047881;28;20032;-65
2023/06/30 09:55:08;;;;;;;17.42;12.90;;;;;;;;;;5048095;28;20048;-65
2023/06/30 09:57:37;;;;;;;17.27;13.60;;;;;;;;;;5046174;28;20385;-66
2023/06/30 10:00:04;;;;;;;18.60;13.85;;;;;;;;;;5046330;28;20048;-65
2023/06/30 10:02:31;;;;;;;14.75;11.43;;;;;;;;;;5047584;28;20039;-65
2023/06/30 10:04:57;;;;;;;18.38;12.43;;;;;;;;;;5047584;28;20108;-66
2023/06/30 10:07:23;;;;;;;15.02;12.40;;;;;;;;;;5046143;28;20032;-66
2023/06/30 10:09:50;;;;;;;15.82;11.90;;;;;;;;;;5047074;28;20033;-65
2023/06/30 10:12:18;;;;;;;15.23;11.93;;;;;;;;;;5047587;28;20029;-65
2023/06/30 10:14:44;;;;;;;15.15;11.25;;;;;;;;;;5046900;28;20849;-65
2023/06/30 10:17:11;;;;;;;19.40;12.32;;;;;;;;;;5047570;28;20040;-66
2023/06/30 10:19:39;;;;;;;16.70;12.65;;;;;;;;;;5047350;28;20032;-65
2023/06/30 10:22:05;;;;;;;16.40;12.52;;;;;;;;;;5046125;28;20072;-66
2023/06/30 10:24:37;;;;;;;14.50;12.27;;;;;;;;;;5046429;28;20040;-66
2023/06/30 10:27:06;;;;;;;13.23;11.85;;;;;;;;;;5047501;28;20041;-66
2023/06/30 10:29:32;;;;;;;14.55;11.88;;;;;;;;;;5077484;28;20128;-65
2023/06/30 10:31:58;;;;;;;17.55;12.52;;;;;;;;;;5045103;28;20041;-66
2023/06/30 10:34:24;;;;;;;17.83;13.13;;;;;;;;;;5047106;28;20103;-67
2023/06/30 10:36:51;;;;;;;17.20;12.93;;;;;;;;;;5047196;28;20773;-66
2023/06/30 10:39:17;;;;;;;18.08;14.30;;;;;;;;;;5042234;28;20500;-66
2023/06/30 10:41:49;;;;;;;15.40;13.52;;;;;;;;;;5044122;28;20084;-65
2023/06/30 10:44:18;;;;;;;15.75;13.48;;;;;;;;;;5044423;28;20779;-65
2023/06/30 10:46:56;;;;;;;18.27;13.40;;;;;;;;;;5045214;28;20029;-66
2023/06/30 10:49:36;;;;;;;14.98;12.85;;;;;;;;;;5044183;28;20037;-65
2023/06/30 10:52:06;;;;;;;16.58;13.35;;;;;;;;;;5044344;28;20036;-65
2023/06/30 10:54:47;;;;;;;22.27;13.13;;;;;;;;;;5045236;28;20033;-65
2023/06/30 10:57:20;;;;;;;17.73;13.10;;;;;;;;;;5045801;28;20075;-66
2023/06/30 10:59:47;;;;;;;15.82;12.50;;;;;;;;;;5044144;28;20063;-66
2023/06/30 11:02:19;;;;;;;16.92;12.45;;;;;;;;;;5045347;28;20409;-66
2023/06/30 11:04:46;;;;;;;16.58;12.90;;;;;;;;;;5043936;28;20048;-66
2023/06/30 11:07:24;;;;;;;17.42;12.63;;;;;;;;;;5044372;28;20052;-66
2023/06/30 11:09:49;;;;;;;15.85;13.02;;;;;;;;;;5045186;28;20033;-66
2023/06/30 11:12:19;;;;;;;16.80;13.00;;;;;;;;;;5045437;28;20040;-66
2023/06/30 11:14:58;;;;;;;20.42;13.57;;;;;;;;;;5045436;28;20036;-66
2023/06/30 11:17:27;;;;;;;;;;;;;;;;;;5042170;28;20707;-66
2023/06/30 11:20:12;;;;;;;18.23;13.35;;;;;;;;;;5042805;28;19916;-65
2023/06/30 11:22:39;;;;;;;19.33;14.02;;;;;;;;;;5044500;28;20135;-66
2023/06/30 11:25:09;;;;;;;18.02;13.30;;;;;;;;;;5042539;28;20048;-66
2023/06/30 11:27:35;;;;;;;17.23;13.38;;;;;;;;;;5044235;28;20481;-66
2023/06/30 11:30:01;;;;;;;17.58;13.20;;;;;;;;;;5060153;28;20085;-66
2023/06/30 11:32:28;;;;;;;17.58;12.50;;;;;;;;;;5043868;28;20499;-66
2023/06/30 11:34:58;;;;;;;16.50;13.50;;;;;;;;;;5042870;28;20037;-66
2023/06/30 11:37:25;;;;;;;16.75;13.25;;;;;;;;;;5044361;28;20036;-66
2023/06/30 11:39:55;;;;;;;19.58;14.73;;;;;;;;;;5043923;28;20069;-65
2023/06/30 11:42:21;;;;;;;18.13;13.90;;;;;;;;;;5043768;28;20204;-65
2023/06/30 11:44:50;;;;;;;16.52;13.57;;;;;;;;;;5042463;28;20147;-65
2023/06/30 11:47:17;;;;;;;18.25;13.82;;;;;;;;;;5044508;28;20151;-65
2023/06/30 11:49:45;;;;;;;18.63;13.43;;;;;;;;;;5044085;28;20123;-66
2023/06/30 11:52:11;;;;;;;20.08;14.60;;;;;;;;;;5042673;28;20033;-66
2023/06/30 11:54:37;;;;;;;18.55;13.50;;;;;;;;;;5043781;28;20036;-65
2023/06/30 11:57:03;;;;;;;20.00;14.00;;;;;;;;;;5043548;28;20059;-65
2023/06/30 11:59:32;;;;;;;18.92;14.50;;;;;;;;;;5041720;28;20506;-65
2023/06/30 12:01:58;;;;;;;21.05;14.52;;;;;;;;;;5040404;28;20045;-65
2023/06/30 12:04:35;;;;;;;20.95;14.88;;;;;;;;;;5043118;28;20065;-65
2023/06/30 12:07:05;;;;;;;21.17;15.20;;;;;;;;;;5043446;28;20147;-66
2023/06/30 12:09:32;;;;;;;20.73;15.38;;;;;;;;;;5042508;28;20036;-66
2023/06/30 12:11:58;;;;;;;22.52;14.60;;;;;;;;;;5043045;28;20047;-66
2023/06/30 12:14:27;;;;;;;20.20;14.70;;;;;;;;;;5042221;28;20389;-66
2023/06/30 12:16:53;;;;;;;21.13;14.20;;;;;;;;;;5037066;28;20035;-67
2023/06/30 12:19:27;;;;;;;21.23;13.88;;;;;;;;;;5043330;28;20037;-67
2023/06/30 12:22:03;;;;;;;17.95;13.38;;;;;;;;;;5041255;28;20041;-67
2023/06/30 12:24:32;;;;;;;20.27;13.85;;;;;;;;;;5042751;28;20060;-67
2023/06/30 12:27:00;;;;;;;22.25;14.95;;;;;;;;;;5043689;28;20917;-67
2023/06/30 12:29:30;;;;;;;23.13;14.13;;;;;;;;;;5044089;28;20041;-66
2023/06/30 12:31:55;;;;;;;21.63;13.45;;;;;;;;;;5041574;28;20127;-66
2023/06/30 12:34:34;;;;;;;21.05;13.95;;;;;;;;;;5040334;28;20043;-66
2023/06/30 12:37:00;;;;;;;20.58;13.98;;;;;;;;;;5042641;28;20099;-66
2023/06/30 12:39:26;;;;;;;20.45;13.93;;;;;;;;;;5043027;28;20036;-66
2023/06/30 12:41:51;;;;;;;22.23;14.48;;;;;;;;;;5043178;28;20515;-66
2023/06/30 12:44:17;;;;;;;22.23;13.73;;;;;;;;;;5039301;28;20130;-66
2023/06/30 12:46:43;;;;;;;24.48;15.20;;;;;;;;;;5043939;28;20048;-66
2023/06/30 12:49:09;;;;;;;24.88;16.05;;;;;;;;;;5043491;28;20086;-66
2023/06/30 12:51:35;;;;;;;20.60;14.68;;;;;;;;;;5035230;28;20056;-66
2023/06/30 12:54:02;;;;;;;21.80;13.52;;;;;;;;;;5043103;28;20499;-66
2023/06/30 12:56:27;;;;;;;19.42;13.13;;;;;;;;;;5043323;28;20033;-66
2023/06/30 12:58:53;;;;;;;22.88;14.10;;;;;;;;;;5041910;28;20029;-66
2023/06/30 13:01:18;;;;;;;19.33;12.82;;;;;;;;;;5043146;28;20049;-66
2023/06/30 13:03:44;;;;;;;19.25;14.20;;;;;;;;;;5043680;28;20040;-65
2023/06/30 13:06:09;;;;;;;19.63;14.05;;;;;;;;;;5037016;28;20582;-65
2023/06/30 13:08:37;;;;;;;17.65;13.20;;;;;;;;;;5041574;28;20037;-65
2023/06/30 13:11:05;;;;;;;19.63;13.87;;;;;;;;;;5042509;28;20037;-65
2023/06/30 13:13:31;;;;;;;22.40;13.48;;;;;;;;;;5042745;28;20041;-65
2023/06/30 13:15:56;;;;;;;16.92;12.95;;;;;;;;;;5044092;28;20128;-65
2023/06/30 13:18:22;;;;;;;20.52;13.52;;;;;;;;;;5046560;28;20047;-65
2023/06/30 13:20:47;;;;;;;20.70;13.73;;;;;;;;;;5043423;28;20103;-65
2023/06/30 13:23:13;;;;;;;21.08;14.18;;;;;;;;;;5048610;28;20077;-65
2023/06/30 13:25:38;;;;;;;20.15;13.25;;;;;;;;;;5048600;28;20124;-65
2023/06/30 13:28:04;;;;;;;22.52;14.05;;;;;;;;;;5047970;28;20032;-65
2023/06/30 13:30:30;;;;;;;19.45;13.95;;;;;;;;;;5047012;28;20111;-65
2023/06/30 13:32:55;;;;;;;22.83;14.27;;;;;;;;;;5048969;28;20061;-66
2023/06/30 13:35:21;;;;;;;22.40;14.77;;;;;;;;;;5049741;28;20076;-66
2023/06/30 13:37:47;;;;;;;19.42;12.63;;;;;;;;;;5047961;28;20037;-66
2023/06/30 13:40:13;;;;;;;20.95;14.30;;;;;;;;;;5048127;28;20040;-66
2023/06/30 13:42:38;;;;;;;23.00;14.00;;;;;;;;;;5048262;28;20040;-66
2023/06/30 13:45:05;;;;;;;18.55;13.75;;;;;;;;;;5045105;28;20046;-66
2023/06/30 13:47:30;;;;;;;23.38;13.55;;;;;;;;;;5044283;28;20033;-66
2023/06/30 13:49:56;;;;;;;20.20;13.10;;;;;;;;;;5063695;28;20450;-66
2023/06/30 13:52:22;;;;;;;19.17;12.13;;;;;;;;;;5048724;28;20512;-65
2023/06/30 13:54:47;;;;;;;18.13;12.40;;;;;;;;;;5047126;28;20075;-66
2023/06/30 13:57:13;;;;;;;16.30;12.50;;;;;;;;;;5063176;28;20052;-66
2023/06/30 13:59:38;;;;;;;21.38;14.27;;;;;;;;;;5048083;28;20077;-66
2023/06/30 14:02:04;;;;;;;24.13;13.30;;;;;;;;;;5047902;28;20123;-66
2023/06/30 14:04:29;;;;;;;20.30;12.82;;;;;;;;;;5044497;28;20037;-66
2023/06/30 14:06:55;;;;;;;24.10;14.25;;;;;;;;;;5048121;28;20032;-66
2023/06/30 14:09:20;;;;;;;18.58;12.88;;;;;;;;;;5047934;28;20041;-66
2023/06/30 14:11:46;;;;;;;19.15;13.70;;;;;;;;;;5043642;28;20033;-66
2023/06/30 14:14:12;;;;;;;16.35;12.27;;;;;;;;;;5048083;28;20102;-66
2023/06/30 14:16:38;;;;;;;18.27;13.82;;;;;;;;;;5047760;28;20033;-66
2023/06/30 14:19:03;;;;;;;20.33;13.50;;;;;;;;;;5045905;28;20048;-66
2023/06/30 14:21:29;;;;;;;21.90;14.50;;;;;;;;;;5047315;28;20127;-66
2023/06/30 14:23:55;;;;;;;21.88;13.65;;;;;;;;;;5047696;28;20508;-66
2023/06/30 14:26:22;;;;;;;17.08;12.32;;;;;;;;;;5047428;28;20040;-66